createdAt,value
2018-11-03T00:00:27.798Z,58.96
2018-11-03T00:02:55.266Z,59.06
2018-11-03T00:05:22.798Z,58.97
2018-11-03T00:07:50.322Z,58.88
2018-11-03T00:10:17.805Z,58.79
2018-11-03T00:12:45.289Z,58.96
2018-11-03T00:15:12.842Z,58.86
2018-11-03T00:17:40.221Z,58.96
2018-11-03T00:20:07.681Z,58.95
2018-11-03T00:22:35.231Z,58.68
2018-11-03T00:25:02.944Z,58.65
2018-11-03T00:27:30.595Z,58.97
2018-11-03T00:29:58.123Z,59.30
2018-11-03T00:32:25.883Z,59.65
2018-11-03T00:34:53.422Z,59.80
2018-11-03T00:37:21.078Z,59.94
2018-11-03T00:39:48.570Z,59.79
2018-11-03T00:42:16.224Z,59.99
2018-11-03T00:44:43.782Z,60.04
2018-11-03T00:47:11.206Z,60.24
2018-11-03T00:49:38.785Z,60.09
2018-11-03T00:52:06.312Z,59.85
2018-11-03T00:54:33.816Z,59.95
2018-11-03T00:57:01.244Z,59.95
2018-11-03T00:59:28.768Z,60.09
2018-11-03T01:01:56.295Z,59.98
2018-11-03T01:04:23.845Z,59.82
2018-11-03T01:06:51.338Z,59.73
2018-11-03T01:09:18.826Z,59.84
2018-11-03T01:11:46.538Z,59.66
2018-11-03T01:14:14.128Z,59.71
2018-11-03T01:16:41.624Z,60.01
2018-11-03T01:19:09.359Z,60.12
2018-11-03T01:21:36.950Z,60.13
2018-11-03T01:24:04.926Z,60.19
2018-11-03T01:26:32.427Z,60.42
2018-11-03T01:29:00.342Z,60.28
2018-11-03T01:31:27.804Z,60.41
2018-11-03T01:33:55.359Z,60.37
2018-11-03T01:36:23.183Z,60.38
2018-11-03T01:38:50.662Z,60.75
2018-11-03T01:41:18.168Z,60.72
2018-11-03T01:43:45.628Z,61.13
2018-11-03T01:46:13.088Z,60.65
2018-11-03T01:48:40.761Z,61.22
2018-11-03T01:51:08.260Z,60.89
2018-11-03T01:53:35.686Z,60.90
2018-11-03T01:56:03.162Z,61.09
2018-11-03T01:58:30.670Z,60.77
2018-11-03T02:00:58.224Z,60.76
2018-11-03T02:03:25.641Z,60.92
2018-11-03T02:05:53.112Z,60.83
2018-11-03T02:08:20.564Z,60.77
2018-11-03T02:10:48.052Z,60.62
2018-11-03T02:13:15.484Z,60.92
2018-11-03T02:15:43.080Z,61.16
2018-11-03T02:18:10.536Z,61.30
2018-11-03T02:20:38.139Z,61.46
2018-11-03T02:23:05.570Z,61.66
2018-11-03T02:25:33.054Z,62.22
2018-11-03T02:28:00.511Z,62.74
2018-11-03T02:30:28.002Z,63.13
2018-11-03T02:32:55.399Z,63.36
2018-11-03T02:35:22.898Z,63.81
2018-11-03T02:37:50.474Z,64.40
2018-11-03T02:40:18.006Z,65.08
2018-11-03T02:42:45.463Z,65.37
2018-11-03T02:45:12.893Z,66.19
2018-11-03T02:47:40.853Z,66.58
2018-11-03T02:50:10.598Z,66.96
2018-11-03T02:52:38.046Z,67.38
2018-11-03T02:55:05.616Z,67.47
2018-11-03T02:57:33.314Z,67.78
2018-11-03T03:00:00.873Z,68.03
2018-11-03T03:02:28.339Z,68.53
2018-11-03T03:04:55.798Z,68.47
2018-11-03T03:07:23.323Z,68.72
2018-11-03T03:09:50.720Z,68.79
2018-11-03T03:12:18.181Z,68.87
2018-11-03T03:14:45.600Z,68.84
2018-11-03T03:17:13.171Z,69.47
2018-11-03T03:19:40.649Z,69.42
2018-11-03T03:22:08.218Z,69.55
2018-11-03T03:24:35.638Z,69.80
2018-11-03T03:27:03.202Z,69.75
2018-11-03T03:29:30.653Z,69.57
2018-11-03T03:31:58.078Z,69.62
2018-11-03T03:34:25.519Z,69.96
2018-11-03T03:36:53.086Z,70.16
2018-11-03T03:39:20.508Z,70.10
2018-11-03T03:41:47.958Z,70.46
2018-11-03T03:44:15.449Z,70.79
2018-11-03T03:46:42.905Z,71.40
2018-11-03T03:49:10.346Z,71.52
2018-11-03T03:51:37.778Z,71.99
2018-11-03T03:54:05.186Z,72.16
2018-11-03T03:56:32.759Z,72.42
2018-11-03T03:59:00.384Z,72.64
2018-11-03T04:01:27.818Z,72.41
2018-11-03T04:03:55.384Z,72.61
2018-11-03T04:06:22.957Z,72.70
2018-11-03T04:08:50.476Z,72.83
2018-11-03T04:11:17.949Z,72.77
2018-11-03T04:13:45.778Z,72.86
2018-11-03T04:16:13.210Z,72.71
2018-11-03T04:18:40.727Z,72.70
2018-11-03T04:21:08.320Z,73.01
2018-11-03T04:23:35.742Z,72.85
2018-11-03T04:26:03.354Z,73.12
2018-11-03T04:28:30.778Z,73.36
2018-11-03T04:30:58.217Z,73.66
2018-11-03T04:33:25.710Z,73.78
2018-11-03T04:35:53.124Z,73.86
2018-11-03T04:38:20.500Z,74.04
2018-11-03T04:40:47.981Z,74.25
2018-11-03T04:43:15.507Z,74.36
2018-11-03T04:45:42.946Z,74.61
2018-11-03T04:48:10.366Z,75.04
2018-11-03T04:50:37.882Z,74.96
2018-11-03T04:53:05.375Z,75.09
2018-11-03T04:55:32.890Z,75.46
2018-11-03T04:58:00.502Z,75.59
2018-11-03T05:00:27.943Z,75.87
2018-11-03T05:02:55.373Z,75.79
2018-11-03T05:05:22.859Z,75.51
2018-11-03T05:07:50.270Z,75.60
2018-11-03T05:10:18.009Z,75.85
2018-11-03T05:12:45.404Z,75.82
2018-11-03T05:15:12.884Z,75.51
2018-11-03T05:17:40.341Z,75.27
2018-11-03T05:20:08.121Z,75.10
2018-11-03T05:22:35.634Z,75.48
2018-11-03T05:25:03.334Z,75.01
2018-11-03T05:27:30.830Z,74.89
2018-11-03T05:29:58.299Z,75.37
2018-11-03T05:32:25.796Z,76.02
2018-11-03T05:34:53.272Z,76.04
2018-11-03T05:37:20.730Z,76.50
2018-11-03T05:39:48.185Z,76.67
2018-11-03T05:42:15.629Z,76.45
2018-11-03T05:44:44.008Z,76.33
2018-11-03T05:47:11.722Z,76.16
2018-11-03T05:49:39.107Z,76.46
2018-11-03T05:52:06.541Z,76.84
2018-11-03T05:54:34.043Z,76.51
2018-11-03T05:57:01.534Z,76.54
2018-11-03T05:59:29.095Z,76.63
2018-11-03T06:01:56.675Z,76.77
2018-11-03T06:04:24.119Z,76.88
2018-11-03T06:06:51.758Z,76.60
2018-11-03T06:09:19.389Z,76.48
2018-11-03T06:11:46.842Z,76.23
2018-11-03T06:14:14.296Z,76.22
2018-11-03T06:16:42.246Z,76.22
2018-11-03T06:19:09.714Z,76.24
2018-11-03T06:21:37.184Z,76.57
2018-11-03T06:24:04.750Z,77.04
2018-11-03T06:26:32.228Z,76.97
2018-11-03T06:29:00.009Z,76.70
2018-11-03T06:31:27.720Z,76.73
2018-11-03T06:33:55.230Z,76.81
2018-11-03T06:36:22.670Z,76.39
2018-11-03T06:38:50.201Z,75.80
2018-11-03T06:41:17.810Z,75.59
2018-11-03T06:43:45.337Z,75.35
2018-11-03T06:46:12.946Z,74.97
2018-11-03T06:48:40.407Z,74.92
2018-11-03T06:51:07.915Z,74.24
2018-11-03T06:53:35.437Z,74.10
2018-11-03T06:56:03.084Z,73.58
2018-11-03T06:58:30.628Z,73.25
2018-11-03T07:00:58.278Z,73.38
2018-11-03T07:03:25.786Z,72.86
2018-11-03T07:05:53.537Z,71.77
2018-11-03T07:08:21.301Z,70.57
2018-11-03T07:10:48.756Z,70.10
2018-11-03T07:13:16.475Z,69.00
2018-11-03T07:15:43.927Z,67.55
2018-11-03T07:18:11.331Z,65.55
2018-11-03T07:20:38.963Z,64.03
2018-11-03T07:23:06.593Z,63.35
2018-11-03T07:25:34.137Z,62.46
2018-11-03T07:28:01.589Z,56.05
2018-11-03T07:30:29.117Z,52.63
2018-11-03T07:32:56.607Z,46.01
2018-11-03T07:35:24.111Z,43.95
2018-11-03T07:37:51.589Z,40.72
2018-11-03T07:40:19.111Z,37.44
2018-11-03T07:42:46.771Z,34.58
2018-11-03T07:45:14.387Z,32.38
2018-11-03T07:47:41.935Z,32.94
2018-11-03T07:50:11.120Z,32.54
2018-11-03T07:52:38.641Z,34.03
2018-11-03T07:55:07.553Z,36.05
2018-11-03T07:57:35.135Z,37.19
2018-11-03T08:00:02.693Z,37.77
2018-11-03T08:02:30.117Z,38.06
2018-11-03T08:04:57.537Z,38.92
2018-11-03T08:07:25.301Z,41.07
2018-11-03T08:09:52.947Z,43.80
2018-11-03T08:12:20.495Z,46.03
2018-11-03T08:14:47.943Z,47.92
2018-11-03T08:17:15.394Z,49.82
2018-11-03T08:19:43.052Z,51.53
2018-11-03T08:22:10.604Z,52.82
2018-11-03T08:24:38.075Z,54.24
2018-11-03T08:27:06.396Z,55.28
2018-11-03T08:29:33.911Z,56.08
2018-11-03T08:32:01.651Z,56.76
2018-11-03T08:34:29.142Z,57.00
2018-11-03T08:36:56.713Z,57.72
2018-11-03T08:39:24.361Z,57.03
2018-11-03T08:41:51.933Z,57.52
2018-11-03T08:44:19.377Z,57.59
2018-11-03T08:46:46.911Z,57.13
2018-11-03T08:49:14.391Z,56.48
2018-11-03T08:51:42.114Z,56.18
2018-11-03T08:54:09.573Z,56.13
2018-11-03T08:56:37.137Z,56.24
2018-11-03T08:59:05.231Z,55.82
2018-11-03T09:01:32.718Z,56.10
2018-11-03T09:04:00.249Z,57.05
2018-11-03T09:06:27.762Z,57.32
2018-11-03T09:08:55.258Z,58.03
2018-11-03T09:11:22.931Z,58.64
2018-11-03T09:13:50.445Z,59.05
2018-11-03T09:16:17.945Z,58.97
2018-11-03T09:18:45.482Z,59.19
2018-11-03T09:21:13.090Z,59.44
2018-11-03T09:23:40.563Z,59.34
2018-11-03T09:26:08.080Z,59.00
2018-11-03T09:28:35.581Z,60.03
2018-11-03T09:31:03.151Z,60.60
2018-11-03T09:33:30.565Z,60.93
2018-11-03T09:35:58.417Z,60.71
2018-11-03T09:38:26.016Z,60.75
2018-11-03T09:40:53.506Z,60.82
2018-11-03T09:43:21.068Z,60.51
2018-11-03T09:45:48.558Z,60.57
2018-11-03T09:48:15.977Z,60.47
2018-11-03T09:50:43.620Z,60.53
2018-11-03T09:53:10.941Z,60.82
2018-11-03T09:55:38.515Z,60.45
2018-11-03T09:58:06.190Z,60.32
2018-11-03T10:00:33.839Z,59.72
2018-11-03T10:03:01.305Z,60.23
2018-11-03T10:05:28.857Z,59.77
2018-11-03T10:07:57.743Z,59.72
2018-11-03T10:10:25.322Z,59.21
2018-11-03T10:12:52.882Z,59.73
2018-11-03T10:15:20.489Z,59.81
2018-11-03T10:17:47.985Z,59.12
2018-11-03T10:20:15.614Z,58.83
2018-11-03T10:22:43.193Z,58.84
2018-11-03T10:25:15.827Z,58.46
2018-11-03T10:27:44.160Z,57.71
2018-11-03T10:30:13.139Z,57.54
2018-11-03T10:32:41.309Z,58.02
2018-11-03T10:35:09.872Z,57.72
2018-11-03T10:37:37.321Z,57.96
2018-11-03T10:40:06.961Z,57.86
2018-11-03T10:42:34.441Z,57.71
2018-11-03T10:45:02.194Z,57.21
2018-11-03T10:47:29.675Z,57.16
2018-11-03T10:49:57.361Z,56.72
2018-11-03T10:52:24.867Z,56.49
2018-11-03T10:54:52.345Z,56.53
2018-11-03T10:57:19.920Z,56.55
2018-11-03T10:59:47.375Z,56.34
2018-11-03T11:02:20.735Z,56.93
2018-11-03T11:04:53.787Z,56.00
2018-11-03T11:07:26.931Z,56.34
2018-11-03T11:09:59.967Z,56.29
2018-11-03T11:12:36.233Z,56.55
2018-11-03T11:15:03.902Z,56.98
2018-11-03T11:17:31.595Z,56.58
2018-11-03T11:19:59.169Z,56.65
2018-11-03T11:22:26.901Z,56.07
2018-11-03T11:24:54.477Z,56.27
2018-11-03T11:27:22.194Z,56.15
2018-11-03T11:29:49.961Z,55.85
2018-11-03T11:32:17.484Z,56.25
2018-11-03T11:34:45.032Z,55.86
2018-11-03T11:37:12.599Z,56.43
2018-11-03T11:39:40.153Z,55.62
2018-11-03T11:42:07.770Z,56.08
2018-11-03T11:44:35.452Z,56.04
2018-11-03T11:47:03.176Z,55.57
2018-11-03T11:49:30.710Z,55.64
2018-11-03T11:51:58.205Z,55.94
2018-11-03T11:54:25.937Z,55.60
2018-11-03T11:56:53.503Z,55.46
2018-11-03T11:59:20.940Z,55.03
2018-11-03T12:01:48.841Z,54.94
2018-11-03T12:04:16.303Z,55.33
2018-11-03T12:06:43.866Z,54.57
2018-11-03T12:09:11.330Z,54.88
2018-11-03T12:11:38.921Z,54.78
2018-11-03T12:14:06.798Z,54.38
2018-11-03T12:16:34.412Z,54.30
2018-11-03T12:19:02.105Z,54.80
2018-11-03T12:21:29.616Z,54.99
2018-11-03T12:23:57.242Z,54.45
2018-11-03T12:26:24.852Z,54.20
2018-11-03T12:28:52.440Z,54.19
2018-11-03T12:31:20.015Z,53.76
2018-11-03T12:33:47.634Z,53.95
2018-11-03T12:36:15.091Z,54.38
2018-11-03T12:38:42.940Z,53.83
2018-11-03T12:41:10.525Z,53.27
2018-11-03T12:43:38.080Z,53.97
2018-11-03T12:46:05.672Z,53.76
2018-11-03T12:48:33.167Z,53.40
2018-11-03T12:51:00.682Z,54.31
2018-11-03T12:53:28.242Z,54.61
2018-11-03T12:55:55.747Z,54.38
2018-11-03T12:58:23.253Z,53.75
2018-11-03T13:00:50.816Z,54.80
2018-11-03T13:03:18.339Z,54.80
2018-11-03T13:05:45.918Z,54.66
2018-11-03T13:08:13.525Z,54.98
2018-11-03T13:10:40.984Z,54.79
2018-11-03T13:13:08.443Z,55.15
2018-11-03T13:15:35.910Z,54.81
2018-11-03T13:18:03.579Z,55.19
2018-11-03T13:20:31.062Z,55.05
2018-11-03T13:22:58.871Z,55.39
2018-11-03T13:25:26.461Z,55.33
2018-11-03T13:27:54.116Z,55.37
2018-11-03T13:30:21.577Z,55.02
2018-11-03T13:32:49.271Z,55.58
2018-11-03T13:35:16.963Z,55.78
2018-11-03T13:37:44.414Z,55.70
2018-11-03T13:40:13.066Z,55.98
2018-11-03T13:42:40.904Z,55.92
2018-11-03T13:45:09.062Z,56.35
2018-11-03T13:47:37.604Z,56.47
2018-11-03T13:50:10.581Z,56.65
2018-11-03T13:52:38.061Z,56.53
2018-11-03T13:55:06.386Z,56.89
2018-11-03T13:57:33.885Z,56.75
2018-11-03T14:00:01.368Z,56.87
2018-11-03T14:02:28.852Z,57.06
2018-11-03T14:04:56.349Z,57.15
2018-11-03T14:07:23.922Z,57.16
2018-11-03T14:09:51.410Z,57.37
2018-11-03T14:12:18.995Z,57.20
2018-11-03T14:14:46.538Z,57.39
2018-11-03T14:17:14.254Z,57.15
2018-11-03T14:19:41.710Z,57.76
2018-11-03T14:22:09.170Z,57.93
2018-11-03T14:24:36.687Z,57.55
2018-11-03T14:27:04.203Z,58.12
2018-11-03T14:29:31.644Z,57.93
2018-11-03T14:31:59.181Z,57.85
2018-11-03T14:34:26.685Z,58.35
2018-11-03T14:36:54.267Z,57.93
2018-11-03T14:39:21.749Z,58.29
2018-11-03T14:41:49.626Z,58.61
2018-11-03T14:44:17.074Z,57.88
2018-11-03T14:46:44.880Z,58.25
2018-11-03T14:49:12.653Z,58.29
2018-11-03T14:51:40.212Z,58.38
2018-11-03T14:54:07.966Z,58.28
2018-11-03T14:56:35.739Z,58.78
2018-11-03T14:59:03.194Z,58.71
2018-11-03T15:01:30.839Z,58.69
2018-11-03T15:03:58.363Z,59.04
2018-11-03T15:06:25.938Z,59.00
2018-11-03T15:08:53.429Z,59.02
2018-11-03T15:11:20.939Z,58.95
2018-11-03T15:13:48.524Z,59.65
2018-11-03T15:16:15.950Z,59.25
2018-11-03T15:18:43.475Z,59.73
2018-11-03T15:21:11.069Z,60.28
2018-11-03T15:23:38.586Z,60.15
2018-11-03T15:26:06.067Z,60.52
2018-11-03T15:28:33.513Z,60.70
2018-11-03T15:31:01.069Z,60.65
2018-11-03T15:33:28.507Z,61.00
2018-11-03T15:35:56.033Z,61.23
2018-11-03T15:38:23.699Z,61.36
2018-11-03T15:40:51.308Z,61.86
2018-11-03T15:43:18.945Z,61.91
2018-11-03T15:45:46.577Z,61.87
2018-11-03T15:48:14.135Z,61.81
2018-11-03T15:50:47.716Z,62.23
2018-11-03T15:53:15.282Z,62.03
2018-11-03T15:55:42.774Z,62.43
2018-11-03T15:58:10.324Z,62.29
2018-11-03T16:00:38.040Z,62.62
2018-11-03T16:03:05.552Z,62.80
2018-11-03T16:05:33.112Z,62.85
2018-11-03T16:08:00.528Z,62.98
2018-11-03T16:10:28.097Z,63.18
2018-11-03T16:12:55.574Z,63.32
2018-11-03T16:15:23.128Z,63.90
2018-11-03T16:17:50.564Z,64.26
2018-11-03T16:20:18.054Z,64.01
2018-11-03T16:22:45.596Z,64.54
2018-11-03T16:25:13.112Z,64.87
2018-11-03T16:27:40.848Z,65.41
2018-11-03T16:30:11.034Z,65.33
2018-11-03T16:32:38.646Z,65.99
2018-11-03T16:35:06.396Z,66.09
2018-11-03T16:37:33.930Z,66.61
2018-11-03T16:40:01.439Z,66.62
2018-11-03T16:42:28.982Z,66.68
2018-11-03T16:44:56.508Z,66.99
2018-11-03T16:47:24.372Z,67.33
2018-11-03T16:49:51.842Z,67.75
2018-11-03T16:52:19.437Z,67.63
2018-11-03T16:54:47.057Z,67.59
2018-11-03T16:57:14.580Z,67.17
2018-11-03T16:59:42.040Z,67.35
2018-11-03T17:02:09.506Z,67.58
2018-11-03T17:04:37.106Z,67.72
2018-11-03T17:07:04.940Z,68.04
2018-11-03T17:09:32.515Z,68.27
2018-11-03T17:12:00.385Z,68.29
2018-11-03T17:14:28.256Z,68.64
2018-11-03T17:16:55.738Z,68.49
2018-11-03T17:19:23.306Z,68.67
2018-11-03T17:21:57.464Z,68.97
2018-11-03T17:24:25.137Z,68.74
2018-11-03T17:26:52.607Z,69.08
2018-11-03T17:29:20.167Z,69.40
2018-11-03T17:31:47.648Z,69.25
2018-11-03T17:34:15.137Z,69.08
2018-11-03T17:36:42.719Z,69.20
2018-11-03T17:39:11.251Z,69.80
2018-11-03T17:41:38.775Z,69.71
2018-11-03T17:44:06.737Z,69.91
2018-11-03T17:46:34.691Z,69.98
2018-11-03T17:49:02.184Z,70.29
2018-11-03T17:51:29.626Z,70.54
2018-11-03T17:53:57.295Z,70.58
2018-11-03T17:56:24.907Z,71.07
2018-11-03T17:58:52.391Z,71.17
2018-11-03T18:01:20.023Z,71.57
2018-11-03T18:03:47.555Z,71.54
2018-11-03T18:06:15.101Z,71.51
2018-11-03T18:08:42.767Z,71.27
2018-11-03T18:13:44.760Z,70.43
2018-11-03T18:16:12.304Z,70.59
2018-11-03T18:18:41.076Z,70.95
2018-11-03T18:21:08.766Z,70.93
2018-11-03T18:23:36.207Z,70.99
2018-11-03T18:26:03.771Z,71.14
2018-11-03T18:28:31.260Z,71.39
2018-11-03T18:30:58.865Z,71.53
2018-11-03T18:33:26.563Z,71.73
2018-11-03T18:35:53.847Z,72.03
2018-11-03T18:38:21.419Z,72.18
2018-11-03T18:40:48.855Z,72.08
2018-11-03T18:43:16.323Z,72.20
2018-11-03T18:45:43.907Z,72.42
2018-11-03T18:48:11.571Z,72.28
2018-11-03T18:50:39.287Z,72.22
2018-11-03T18:53:06.751Z,71.99
2018-11-03T18:55:34.281Z,71.55
2018-11-03T18:58:01.808Z,71.17
2018-11-03T19:00:29.332Z,70.86
2018-11-03T19:02:56.808Z,70.91
2018-11-03T19:05:24.257Z,70.81
2018-11-03T19:07:51.811Z,70.43
2018-11-03T19:10:19.401Z,70.29
2018-11-03T19:12:46.851Z,69.98
2018-11-03T19:15:14.379Z,70.20
2018-11-03T19:17:41.881Z,70.07
2018-11-03T19:20:11.651Z,69.62
2018-11-03T19:22:39.567Z,69.34
2018-11-03T19:25:08.783Z,69.21
2018-11-03T19:27:36.476Z,68.95
2018-11-03T19:30:05.441Z,67.99
2018-11-03T19:32:33.226Z,68.10
2018-11-03T19:35:00.846Z,68.25
2018-11-03T19:37:28.405Z,68.36
2018-11-03T19:39:56.044Z,68.31
2018-11-03T19:42:23.621Z,68.21
2018-11-03T19:44:51.049Z,67.87
2018-11-03T19:47:18.495Z,68.02
2018-11-03T19:49:46.126Z,67.77
2018-11-03T19:52:13.651Z,67.79
2018-11-03T19:54:41.173Z,67.79
2018-11-03T19:57:08.747Z,67.72
2018-11-03T19:59:36.259Z,67.86
2018-11-03T20:02:03.771Z,67.53
2018-11-03T20:04:31.293Z,67.60
2018-11-03T20:06:58.775Z,67.62
2018-11-03T20:09:26.256Z,67.32
2018-11-03T20:11:53.802Z,67.01
2018-11-03T20:14:21.284Z,67.09
2018-11-03T20:16:48.927Z,67.11
2018-11-03T20:19:16.504Z,67.21
2018-11-03T20:21:44.026Z,67.13
2018-11-03T20:24:11.491Z,67.22
2018-11-03T20:26:39.350Z,67.24
2018-11-03T20:29:07.486Z,67.47
2018-11-03T20:31:35.031Z,67.16
2018-11-03T20:34:02.711Z,67.23
2018-11-03T20:36:30.199Z,66.81
2018-11-03T20:38:57.726Z,66.99
2018-11-03T20:41:25.429Z,66.87
2018-11-03T20:43:53.069Z,66.98
2018-11-03T20:46:20.568Z,67.03
2018-11-03T20:48:48.187Z,67.07
2018-11-03T20:51:15.780Z,67.24
2018-11-03T20:53:43.241Z,67.58
2018-11-03T20:56:10.782Z,67.62
2018-11-03T20:58:38.435Z,67.51
2018-11-03T21:01:06.180Z,67.75
2018-11-03T21:03:33.751Z,68.00
2018-11-03T21:06:01.392Z,68.24
2018-11-03T21:08:28.949Z,68.23
2018-11-03T21:10:56.732Z,68.52
2018-11-03T21:13:24.277Z,68.20
2018-11-03T21:15:51.726Z,68.03
2018-11-03T21:18:19.213Z,68.12
2018-11-03T21:20:46.729Z,68.25
2018-11-03T21:23:14.444Z,68.25
2018-11-03T21:25:41.985Z,68.54
2018-11-03T21:28:09.532Z,68.48
2018-11-03T21:30:37.047Z,68.69
2018-11-03T21:33:05.025Z,68.27
2018-11-03T21:35:32.313Z,68.71
2018-11-03T21:37:59.910Z,68.51
2018-11-03T21:40:27.561Z,68.28
2018-11-03T21:42:55.271Z,68.49
2018-11-03T21:45:22.913Z,68.51
2018-11-03T21:47:50.515Z,68.44
2018-11-03T21:50:17.975Z,68.20
2018-11-03T21:57:48.926Z,68.23
2018-11-03T22:00:16.578Z,68.24
2018-11-03T22:02:44.035Z,68.47
2018-11-03T22:05:12.864Z,68.46
2018-11-03T22:07:40.824Z,68.29
2018-11-03T22:10:08.997Z,68.31
2018-11-03T22:12:36.666Z,68.60
2018-11-03T22:15:04.568Z,68.26
2018-11-03T22:17:32.094Z,68.27
2018-11-03T22:19:59.565Z,68.33
2018-11-03T22:22:27.031Z,68.11
2018-11-03T22:24:54.557Z,68.40
2018-11-03T22:27:22.114Z,68.21
2018-11-03T22:29:49.647Z,68.31
2018-11-03T22:32:17.243Z,68.50
2018-11-03T22:34:44.723Z,68.11
2018-11-03T22:37:12.341Z,68.15
2018-11-03T22:39:40.512Z,67.97
2018-11-03T22:42:08.276Z,68.11
2018-11-03T22:44:35.647Z,67.95
2018-11-03T22:47:09.823Z,68.05
2018-11-03T22:49:37.245Z,68.11
2018-11-03T22:52:06.013Z,68.33
2018-11-03T22:54:34.400Z,68.23
2018-11-03T22:57:01.971Z,68.10
2018-11-03T22:59:29.565Z,67.80
2018-11-03T23:01:57.405Z,67.96
2018-11-03T23:04:24.880Z,67.58
2018-11-03T23:06:52.376Z,67.75
2018-11-03T23:09:19.830Z,67.98
2018-11-03T23:11:47.290Z,68.28
2018-11-03T23:14:14.776Z,67.95
2018-11-03T23:16:42.286Z,67.83
2018-11-03T23:19:09.992Z,67.88
2018-11-03T23:21:37.494Z,67.85
2018-11-03T23:24:05.850Z,67.53
2018-11-03T23:26:33.581Z,67.58
2018-11-03T23:29:01.154Z,67.54
2018-11-03T23:31:28.608Z,67.93
2018-11-03T23:33:56.068Z,68.07
2018-11-03T23:36:23.570Z,67.97
2018-11-03T23:38:51.008Z,68.00
2018-11-03T23:41:18.524Z,68.05
2018-11-03T23:48:48.741Z,67.95
2018-11-03T23:51:16.390Z,68.30
2018-11-03T23:53:43.836Z,68.08
2018-11-03T23:56:11.326Z,68.53
2018-11-03T23:58:38.776Z,68.62
